Limoges, France

11:55 AM CET on February 13, 2016 (GMT +0100)
Bellegarde | | Change Station
CLOSE
Current Station
Airport
Location: Limoges,
Elevation: 1319 ft
Nearby Weather Stations

Elev 1319 ft 45.86 °N, 1.17 °E | Updated 25 minutes ago

Overcast
Overcast
52 °F
Feels Like 52 °F
N
24
Wind Variable Wind from WSW
Gusts 39 mph

Today
High -- | Low -- °F
--% Chance of Precip.
Yesterday
High -- | Low -- °F
Precip. -- in
Pressure 29.27 in
Visibility 6.2 miles
Clouds Mostly Cloudy 2500 ft
Mostly Cloudy 3200 ft
Overcast 4100 ft
Dew Point 43 °F
Humidity 71%
Rainfall 0.00 in
Snow Depth Not available.
8:01 AM 6:17 PM
Waxing Crescent, 29% visible
METAR LFBL 131030Z AUTO 24021G34KT 9999 BKN025/// BKN032/// OVC041/// ///TCU 11/06 Q0991
Pressure 29.27 in
Visibility 6.2 miles
Clouds Mostly Cloudy 2500 ft
Mostly Cloudy 3200 ft
Overcast 4100 ft
Dew Point 43 °F
Humidity 71%
Rainfall 0.00 in
Snow Depth Not available.
8:01 AM 6:17 PM
Waxing Crescent, 29% visible
METAR LFBL 131030Z AUTO 24021G34KT 9999 BKN025/// BKN032/// OVC041/// ///TCU 11/06 Q0991

10-Day Weather Forecast

Almanac

Astronomy

Feb. 13, 2016 Rise Set
Actual Time
Civil Twilight
Nautical Twilight
Astronomical Twilight
Moon
Length of Visible Light
Length of Day
Tomorrow will be .
, % of the Moon is Illuminated

Today's Extremes

Country Highs Country Lows

Community

WunderPhotos

Upload Photos

1,892,537 photos uploaded!

WunderBlog® & News

Nearby

Air Quality

  Air Quality AQ Index Pollutant
Not available.

Snow Depth

Station Depth Elevation

Earthquake Activity

City Distance Mag. Time & Date
Minimum magnitude displayed is 2.5.

Coastal Water Temperatures

Place Temperature

Stations

Nearby Weather Stations

Station Location Temp. Windchill Dew Point Humidity Wind Precip. Elev Updated Type